createdAt,value
2024-05-09T00:00:18.574Z,12.1
2024-05-09T00:10:22.216Z,12
2024-05-09T00:20:20.315Z,11.9
2024-05-09T00:30:21.423Z,11.7
2024-05-09T00:40:22.357Z,11.7
2024-05-09T00:50:22.456Z,11.6
2024-05-09T01:10:24.053Z,11.2
2024-05-09T01:20:20.130Z,11
2024-05-09T01:30:21.271Z,11
2024-05-09T01:40:22.470Z,10.8
2024-05-09T01:50:25.291Z,10.7
2024-05-09T02:00:26.118Z,10.6
2024-05-09T02:10:23.304Z,10.6
2024-05-09T02:20:27.316Z,10.3
2024-05-09T02:30:25.767Z,10.2
2024-05-09T02:40:25.368Z,10.1
2024-05-09T02:50:26.058Z,9.9
2024-05-09T03:00:25.671Z,9.8
2024-05-09T03:10:22.524Z,9.6
2024-05-09T03:20:23.979Z,9.5
2024-05-09T03:30:25.880Z,9.4
2024-05-09T03:40:24.039Z,9.3
2024-05-09T04:00:26.092Z,9.1
2024-05-09T04:10:27.615Z,9.1
2024-05-09T04:30:30.144Z,9.1
2024-05-09T04:40:27.610Z,9.1
2024-05-09T04:50:25.680Z,9.2
2024-05-09T05:10:28.994Z,9.8
2024-05-09T05:20:27.135Z,10.2
2024-05-09T05:40:27.872Z,10.9
2024-05-09T05:50:27.579Z,11.3
2024-05-09T06:00:29.493Z,11.5
2024-05-09T06:10:25.971Z,12
2024-05-09T06:20:31.201Z,12.4
2024-05-09T06:30:29.417Z,12.5
2024-05-09T06:50:27.992Z,13.1
2024-05-09T07:10:28.619Z,13.8
2024-05-09T07:20:31.568Z,14.3
2024-05-09T07:30:30.331Z,14.7
2024-05-09T07:40:28.966Z,14.8
2024-05-09T08:00:29.463Z,15.9
2024-05-09T08:10:28.782Z,16.7
2024-05-09T08:20:30.716Z,18
2024-05-09T08:30:29.752Z,17.7
2024-05-09T08:40:30.624Z,18.6
2024-05-09T08:50:31.561Z,19.1
2024-05-09T09:00:33.210Z,19.1
2024-05-09T09:10:31.370Z,19.4
2024-05-09T09:20:33.801Z,19.8
2024-05-09T09:30:34.268Z,19.9
2024-05-09T09:40:31.314Z,20.3
2024-05-09T09:50:33.613Z,20.6
2024-05-09T10:00:32.400Z,20.1
2024-05-09T10:10:31.385Z,20.7
2024-05-09T10:20:32.343Z,20.8
2024-05-09T10:30:33.625Z,21.3
2024-05-09T10:50:33.637Z,20.9
2024-05-09T11:00:33.197Z,20.5
2024-05-09T11:10:33.573Z,21
2024-05-09T11:20:34.597Z,21.3
2024-05-09T11:30:31.980Z,21.7
2024-05-09T11:40:33.943Z,21.6
2024-05-09T11:50:34.986Z,22
2024-05-09T12:00:34.542Z,22
2024-05-09T12:10:32.760Z,22.4
2024-05-09T12:20:34.843Z,22.8
2024-05-09T12:30:35.419Z,23
2024-05-09T12:40:35.031Z,22.7
2024-05-09T12:50:33.559Z,22.7
2024-05-09T13:10:33.306Z,21.1
2024-05-09T13:20:34.027Z,21.1
2024-05-09T13:30:38.161Z,21.6
2024-05-09T13:40:34.665Z,21.7
2024-05-09T13:50:35.096Z,21.3
2024-05-09T14:00:41.596Z,21.5
2024-05-09T14:10:33.807Z,22
2024-05-09T14:20:33.924Z,22.3
2024-05-09T14:30:36.612Z,22.1
2024-05-09T14:40:39.142Z,21.7
2024-05-09T14:50:36.153Z,21.5
2024-05-09T15:00:35.786Z,21.6
2024-05-09T15:10:36.078Z,21.8
2024-05-09T15:20:36.154Z,21.3
2024-05-09T15:30:35.591Z,21.5
2024-05-09T15:40:38.224Z,21.6
2024-05-09T15:50:38.275Z,21.9
2024-05-09T16:00:37.685Z,21.7
2024-05-09T16:10:36.252Z,21.6
2024-05-09T16:20:38.635Z,21.3
2024-05-09T16:30:36.775Z,21.1
2024-05-09T16:40:38.597Z,21
2024-05-09T16:50:37.107Z,20.9
2024-05-09T17:00:40.153Z,20.8
2024-05-09T17:20:37.917Z,20.5
2024-05-09T17:30:38.878Z,20.3
2024-05-09T17:40:38.612Z,20.2
2024-05-09T17:50:38.500Z,20.2
2024-05-09T18:00:39.965Z,20.1
2024-05-09T18:10:39.505Z,19.8
2024-05-09T18:20:41.648Z,19.5
2024-05-09T18:30:39.074Z,19.3
2024-05-09T18:40:40.334Z,19.2
2024-05-09T18:50:40.617Z,18.9
2024-05-09T19:00:41.103Z,18.6
2024-05-09T19:10:40.070Z,18.4
2024-05-09T19:20:40.080Z,18.3
2024-05-09T19:30:41.503Z,18
2024-05-09T19:40:40.576Z,17.6
2024-05-09T19:50:42.713Z,17.3
2024-05-09T20:00:42.032Z,17.1
2024-05-09T20:10:40.965Z,16.8
2024-05-09T20:20:42.524Z,16.6
2024-05-09T20:30:41.389Z,16.3
2024-05-09T20:40:41.588Z,16
2024-05-09T20:50:42.396Z,15.8
2024-05-09T21:00:43.559Z,15.6
2024-05-09T21:10:42.148Z,15.4
2024-05-09T21:20:42.307Z,15.3
2024-05-09T21:30:43.088Z,15.2
2024-05-09T21:40:42.863Z,15
2024-05-09T21:50:43.085Z,14.8
2024-05-09T22:00:43.196Z,14.6
2024-05-09T22:10:43.400Z,14.4
2024-05-09T22:20:43.895Z,14.3
2024-05-09T22:40:47.093Z,14
2024-05-09T22:50:44.111Z,13.6
2024-05-09T23:00:44.433Z,13.2
2024-05-09T23:20:44.746Z,13
2024-05-09T23:30:44.961Z,12.8
2024-05-09T23:40:45.196Z,12.8
2024-05-09T23:50:45.337Z,12.7
